sensor_id;sensor_type;location;lat;lon;timestamp;temperature;humidity
39401;DHT22;54391;50.000;7.360;2022-10-26T00:01:05;11.00;79.00
39401;DHT22;54391;50.000;7.360;2022-10-26T00:03:34;10.90;81.30
39401;DHT22;54391;50.000;7.360;2022-10-26T00:10:59;10.80;82.70
39401;DHT22;54391;50.000;7.360;2022-10-26T00:30:50;10.80;88.50
39401;DHT22;54391;50.000;7.360;2022-10-26T00:33:18;10.80;90.50
39401;DHT22;54391;50.000;7.360;2022-10-26T00:35:47;10.90;90.50
39401;DHT22;54391;50.000;7.360;2022-10-26T00:38:14;10.80;89.90
39401;DHT22;54391;50.000;7.360;2022-10-26T00:40:43;10.80;90.10
39401;DHT22;54391;50.000;7.360;2022-10-26T00:43:15;10.70;90.40
39401;DHT22;54391;50.000;7.360;2022-10-26T00:45:43;10.80;92.50
39401;DHT22;54391;50.000;7.360;2022-10-26T00:48:14;11.30;92.20
39401;DHT22;54391;50.000;7.360;2022-10-26T00:50:46;11.50;89.00
39401;DHT22;54391;50.000;7.360;2022-10-26T00:53:15;11.50;88.40
39401;DHT22;54391;50.000;7.360;2022-10-26T00:55:47;11.60;87.10
39401;DHT22;54391;50.000;7.360;2022-10-26T00:58:16;11.60;84.90
39401;DHT22;54391;50.000;7.360;2022-10-26T01:00:44;11.30;83.30
39401;DHT22;54391;50.000;7.360;2022-10-26T01:03:13;11.20;84.80
39401;DHT22;54391;50.000;7.360;2022-10-26T01:05:43;11.20;87.10
39401;DHT22;54391;50.000;7.360;2022-10-26T01:08:12;11.00;88.90
39401;DHT22;54391;50.000;7.360;2022-10-26T01:10:41;10.90;90.90
39401;DHT22;54391;50.000;7.360;2022-10-26T01:13:10;11.00;92.50
39401;DHT22;54391;50.000;7.360;2022-10-26T01:15:47;10.90;93.20
39401;DHT22;54391;50.000;7.360;2022-10-26T01:18:22;11.10;93.30
39401;DHT22;54391;50.000;7.360;2022-10-26T01:21:38;11.20;91.90
39401;DHT22;54391;50.000;7.360;2022-10-26T01:27:16;11.30;90.80
39401;DHT22;54391;50.000;7.360;2022-10-26T01:32:29;11.40;90.40
39401;DHT22;54391;50.000;7.360;2022-10-26T01:35:04;11.40;91.40
39401;DHT22;54391;50.000;7.360;2022-10-26T01:37:36;11.50;90.90
39401;DHT22;54391;50.000;7.360;2022-10-26T01:40:09;11.50;90.00
39401;DHT22;54391;50.000;7.360;2022-10-26T01:42:43;11.40;89.30
39401;DHT22;54391;50.000;7.360;2022-10-26T01:45:12;11.40;89.80
39401;DHT22;54391;50.000;7.360;2022-10-26T01:47:42;11.30;90.10
39401;DHT22;54391;50.000;7.360;2022-10-26T01:50:11;11.30;90.50
39401;DHT22;54391;50.000;7.360;2022-10-26T01:52:38;11.30;91.20
39401;DHT22;54391;50.000;7.360;2022-10-26T01:55:42;11.30;92.30
39401;DHT22;54391;50.000;7.360;2022-10-26T01:58:30;11.30;92.00
39401;DHT22;54391;50.000;7.360;2022-10-26T02:01:15;11.30;91.50
39401;DHT22;54391;50.000;7.360;2022-10-26T02:03:50;11.30;92.50
39401;DHT22;54391;50.000;7.360;2022-10-26T02:06:29;11.40;91.50
39401;DHT22;54391;50.000;7.360;2022-10-26T02:09:05;11.50;90.70
39401;DHT22;54391;50.000;7.360;2022-10-26T02:11:38;11.50;88.60
39401;DHT22;54391;50.000;7.360;2022-10-26T02:14:17;11.40;88.00
39401;DHT22;54391;50.000;7.360;2022-10-26T02:16:52;11.60;88.00
39401;DHT22;54391;50.000;7.360;2022-10-26T02:19:31;11.50;86.40
39401;DHT22;54391;50.000;7.360;2022-10-26T02:22:03;11.50;86.40
39401;DHT22;54391;50.000;7.360;2022-10-26T02:24:32;11.50;87.80
39401;DHT22;54391;50.000;7.360;2022-10-26T02:27:02;11.50;87.40
39401;DHT22;54391;50.000;7.360;2022-10-26T02:29:32;11.60;87.30
39401;DHT22;54391;50.000;7.360;2022-10-26T02:32:05;11.60;84.90
39401;DHT22;54391;50.000;7.360;2022-10-26T02:34:35;11.80;85.40
39401;DHT22;54391;50.000;7.360;2022-10-26T02:37:04;11.60;83.40
39401;DHT22;54391;50.000;7.360;2022-10-26T02:39:33;11.70;82.60
39401;DHT22;54391;50.000;7.360;2022-10-26T02:42:03;10.30;81.90
39401;DHT22;54391;50.000;7.360;2022-10-26T02:44:33;11.70;83.60
39401;DHT22;54391;50.000;7.360;2022-10-26T02:47:09;11.60;84.20
39401;DHT22;54391;50.000;7.360;2022-10-26T02:49:38;11.60;84.10
39401;DHT22;54391;50.000;7.360;2022-10-26T02:52:13;11.60;83.70
39401;DHT22;54391;50.000;7.360;2022-10-26T02:54:50;11.60;84.10
39401;DHT22;54391;50.000;7.360;2022-10-26T02:57:22;11.50;84.30
39401;DHT22;54391;50.000;7.360;2022-10-26T02:59:51;11.50;84.80
39401;DHT22;54391;50.000;7.360;2022-10-26T03:02:21;11.50;86.10
39401;DHT22;54391;50.000;7.360;2022-10-26T03:09:50;11.20;88.90
39401;DHT22;54391;50.000;7.360;2022-10-26T03:12:17;11.20;88.60
39401;DHT22;54391;50.000;7.360;2022-10-26T03:14:44;11.20;90.10
39401;DHT22;54391;50.000;7.360;2022-10-26T03:17:11;10.90;88.50
39401;DHT22;54391;50.000;7.360;2022-10-26T03:19:39;11.20;88.80
39401;DHT22;54391;50.000;7.360;2022-10-26T03:24:35;11.30;87.10
39401;DHT22;54391;50.000;7.360;2022-10-26T03:27:02;12.50;87.60
39401;DHT22;54391;50.000;7.360;2022-10-26T03:29:30;11.40;88.00
39401;DHT22;54391;50.000;7.360;2022-10-26T03:31:57;11.30;87.60
39401;DHT22;54391;50.000;7.360;2022-10-26T03:34:24;11.30;88.20
39401;DHT22;54391;50.000;7.360;2022-10-26T03:36:51;11.30;88.20
39401;DHT22;54391;50.000;7.360;2022-10-26T03:39:20;11.20;89.10
39401;DHT22;54391;50.000;7.360;2022-10-26T03:41:47;11.00;90.80
39401;DHT22;54391;50.000;7.360;2022-10-26T03:44:15;13.50;92.00
39401;DHT22;54391;50.000;7.360;2022-10-26T03:46:42;11.20;91.80
39401;DHT22;54391;50.000;7.360;2022-10-26T03:49:09;11.10;91.20
39401;DHT22;54391;50.000;7.360;2022-10-26T03:54:05;11.00;93.40
39401;DHT22;54391;50.000;7.360;2022-10-26T03:56:34;10.90;94.00
39401;DHT22;54391;50.000;7.360;2022-10-26T03:59:01;10.80;96.00
39401;DHT22;54391;50.000;7.360;2022-10-26T04:01:28;10.80;96.80
39401;DHT22;54391;50.000;7.360;2022-10-26T04:03:55;10.70;98.10
39401;DHT22;54391;50.000;7.360;2022-10-26T04:08:50;10.80;97.70
39401;DHT22;54391;50.000;7.360;2022-10-26T04:11:23;10.90;95.70
39401;DHT22;54391;50.000;7.360;2022-10-26T04:13:51;11.00;95.50
39401;DHT22;54391;50.000;7.360;2022-10-26T04:16:19;11.10;94.40
39401;DHT22;54391;50.000;7.360;2022-10-26T04:18:47;11.10;92.10
39401;DHT22;54391;50.000;7.360;2022-10-26T04:21:14;11.20;88.60
39401;DHT22;54391;50.000;7.360;2022-10-26T04:23:42;11.20;88.10
39401;DHT22;54391;50.000;7.360;2022-10-26T04:28:37;11.20;88.70
39401;DHT22;54391;50.000;7.360;2022-10-26T04:31:05;11.00;91.30
39401;DHT22;54391;50.000;7.360;2022-10-26T04:33:33;11.00;92.30
39401;DHT22;54391;50.000;7.360;2022-10-26T04:36:00;11.00;93.40
39401;DHT22;54391;50.000;7.360;2022-10-26T04:38:28;10.90;94.40
39401;DHT22;54391;50.000;7.360;2022-10-26T04:43:22;10.70;96.20
39401;DHT22;54391;50.000;7.360;2022-10-26T04:45:53;10.80;97.80
39401;DHT22;54391;50.000;7.360;2022-10-26T04:48:23;10.80;96.50
39401;DHT22;54391;50.000;7.360;2022-10-26T04:53:18;10.90;93.90
39401;DHT22;54391;50.000;7.360;2022-10-26T04:55:45;10.90;93.60
39401;DHT22;54391;50.000;7.360;2022-10-26T04:58:13;10.90;94.70
39401;DHT22;54391;50.000;7.360;2022-10-26T05:00:40;10.70;94.40
39401;DHT22;54391;50.000;7.360;2022-10-26T05:03:08;10.70;94.80
39401;DHT22;54391;50.000;7.360;2022-10-26T05:05:37;10.70;97.30
39401;DHT22;54391;50.000;7.360;2022-10-26T05:15:29;10.60;97.90
39401;DHT22;54391;50.000;7.360;2022-10-26T05:17:57;10.70;97.30
39401;DHT22;54391;50.000;7.360;2022-10-26T05:20:26;10.70;97.50
39401;DHT22;54391;50.000;7.360;2022-10-26T05:22:57;10.70;98.50
39401;DHT22;54391;50.000;7.360;2022-10-26T05:25:26;10.60;99.60
39401;DHT22;54391;50.000;7.360;2022-10-26T05:27:56;10.50;99.90
39401;DHT22;54391;50.000;7.360;2022-10-26T05:30:24;10.50;99.90
39401;DHT22;54391;50.000;7.360;2022-10-26T05:32:55;10.40;99.90
39401;DHT22;54391;50.000;7.360;2022-10-26T05:35:22;10.40;99.90
39401;DHT22;54391;50.000;7.360;2022-10-26T05:37:50;10.50;99.90
39401;DHT22;54391;50.000;7.360;2022-10-26T05:40:20;10.50;99.90
39401;DHT22;54391;50.000;7.360;2022-10-26T05:42:47;13.00;99.90
39401;DHT22;54391;50.000;7.360;2022-10-26T05:45:16;10.60;99.90
39401;DHT22;54391;50.000;7.360;2022-10-26T05:47:44;10.50;99.90
39401;DHT22;54391;50.000;7.360;2022-10-26T05:50:13;10.50;99.90
39401;DHT22;54391;50.000;7.360;2022-10-26T05:52:40;10.60;99.90
39401;DHT22;54391;50.000;7.360;2022-10-26T05:55:09;10.60;99.90
39401;DHT22;54391;50.000;7.360;2022-10-26T05:57:39;10.60;99.40
39401;DHT22;54391;50.000;7.360;2022-10-26T06:00:08;10.60;99.40
39401;DHT22;54391;50.000;7.360;2022-10-26T06:02:49;10.70;99.10
39401;DHT22;54391;50.000;7.360;2022-10-26T06:05:21;10.60;99.80
39401;DHT22;54391;50.000;7.360;2022-10-26T06:07:50;10.70;99.30
39401;DHT22;54391;50.000;7.360;2022-10-26T06:10:18;10.70;97.90
39401;DHT22;54391;50.000;7.360;2022-10-26T06:12:48;10.70;98.50
39401;DHT22;54391;50.000;7.360;2022-10-26T06:15:18;10.70;98.90
39401;DHT22;54391;50.000;7.360;2022-10-26T06:17:51;10.80;97.50
39401;DHT22;54391;50.000;7.360;2022-10-26T06:20:36;10.70;96.70
39401;DHT22;54391;50.000;7.360;2022-10-26T06:23:19;10.70;97.00
39401;DHT22;54391;50.000;7.360;2022-10-26T06:25:56;10.80;96.00
39401;DHT22;54391;50.000;7.360;2022-10-26T06:28:35;10.80;95.80
39401;DHT22;54391;50.000;7.360;2022-10-26T06:31:04;10.80;94.90
39401;DHT22;54391;50.000;7.360;2022-10-26T06:33:32;10.90;95.50
39401;DHT22;54391;50.000;7.360;2022-10-26T06:36:08;10.90;94.10
39401;DHT22;54391;50.000;7.360;2022-10-26T06:38:38;10.90;94.20
39401;DHT22;54391;50.000;7.360;2022-10-26T06:41:10;10.90;93.50
39401;DHT22;54391;50.000;7.360;2022-10-26T06:43:41;10.80;93.30
39401;DHT22;54391;50.000;7.360;2022-10-26T06:46:15;10.90;93.10
39401;DHT22;54391;50.000;7.360;2022-10-26T06:48:53;11.00;92.80
39401;DHT22;54391;50.000;7.360;2022-10-26T06:51:22;11.10;92.60
39401;DHT22;54391;50.000;7.360;2022-10-26T06:53:57;11.10;92.40
39401;DHT22;54391;50.000;7.360;2022-10-26T06:56:28;11.00;92.30
39401;DHT22;54391;50.000;7.360;2022-10-26T06:59:03;11.10;92.60
39401;DHT22;54391;50.000;7.360;2022-10-26T07:01:33;11.20;91.70
39401;DHT22;54391;50.000;7.360;2022-10-26T07:04:00;11.20;90.90
39401;DHT22;54391;50.000;7.360;2022-10-26T07:06:27;11.20;90.90
39401;DHT22;54391;50.000;7.360;2022-10-26T07:08:54;11.20;91.10
39401;DHT22;54391;50.000;7.360;2022-10-26T07:11:22;11.30;91.70
39401;DHT22;54391;50.000;7.360;2022-10-26T07:13:49;11.30;91.20
39401;DHT22;54391;50.000;7.360;2022-10-26T07:16:18;11.30;91.10
39401;DHT22;54391;50.000;7.360;2022-10-26T07:21:13;11.30;90.80
39401;DHT22;54391;50.000;7.360;2022-10-26T07:23:40;11.30;92.00
39401;DHT22;54391;50.000;7.360;2022-10-26T07:31:03;11.40;89.60
39401;DHT22;54391;50.000;7.360;2022-10-26T07:33:32;11.40;90.50
39401;DHT22;54391;50.000;7.360;2022-10-26T07:36:00;11.40;89.40
39401;DHT22;54391;50.000;7.360;2022-10-26T07:38:29;11.80;89.60
39401;DHT22;54391;50.000;7.360;2022-10-26T07:40:56;13.90;59.50
39401;DHT22;54391;50.000;7.360;2022-10-26T07:43:23;14.10;55.50
39401;DHT22;54391;50.000;7.360;2022-10-26T07:45:51;15.20;46.70
39401;DHT22;54391;50.000;7.360;2022-10-26T07:48:18;16.10;37.10
39401;DHT22;54391;50.000;7.360;2022-10-26T07:50:47;16.50;29.70
39401;DHT22;54391;50.000;7.360;2022-10-26T07:53:14;16.20;31.60
39401;DHT22;54391;50.000;7.360;2022-10-26T07:55:41;16.30;29.90
39401;DHT22;54391;50.000;7.360;2022-10-26T07:58:09;16.90;29.90
39401;DHT22;54391;50.000;7.360;2022-10-26T08:00:36;17.10;25.10
39401;DHT22;54391;50.000;7.360;2022-10-26T08:03:03;17.20;25.20
39401;DHT22;54391;50.000;7.360;2022-10-26T08:05:31;17.60;21.00
39401;DHT22;54391;50.000;7.360;2022-10-26T08:07:59;17.90;20.70
39401;DHT22;54391;50.000;7.360;2022-10-26T08:10:28;18.90;16.30
39401;DHT22;54391;50.000;7.360;2022-10-26T08:12:55;18.80;16.70
39401;DHT22;54391;50.000;7.360;2022-10-26T08:15:22;19.00;16.20
39401;DHT22;54391;50.000;7.360;2022-10-26T08:17:50;19.10;15.10
39401;DHT22;54391;50.000;7.360;2022-10-26T08:20:17;19.40;13.20
39401;DHT22;54391;50.000;7.360;2022-10-26T08:22:44;19.40;14.40
39401;DHT22;54391;50.000;7.360;2022-10-26T08:25:13;19.70;12.90
39401;DHT22;54391;50.000;7.360;2022-10-26T08:27:40;19.70;12.60
39401;DHT22;54391;50.000;7.360;2022-10-26T08:30:08;20.40;9.40
39401;DHT22;54391;50.000;7.360;2022-10-26T08:32:35;19.90;11.30
39401;DHT22;54391;50.000;7.360;2022-10-26T08:37:30;19.70;13.50
39401;DHT22;54391;50.000;7.360;2022-10-26T08:39:57;19.70;13.20
39401;DHT22;54391;50.000;7.360;2022-10-26T08:42:29;19.80;12.30
39401;DHT22;54391;50.000;7.360;2022-10-26T08:45:00;19.70;12.90
39401;DHT22;54391;50.000;7.360;2022-10-26T08:47:31;20.10;12.30
39401;DHT22;54391;50.000;7.360;2022-10-26T08:50:03;20.30;12.00
39401;DHT22;54391;50.000;7.360;2022-10-26T08:52:37;20.30;12.70
39401;DHT22;54391;50.000;7.360;2022-10-26T08:55:12;20.10;13.50
39401;DHT22;54391;50.000;7.360;2022-10-26T08:57:42;20.10;13.80
39401;DHT22;54391;50.000;7.360;2022-10-26T09:00:17;20.30;12.70
39401;DHT22;54391;50.000;7.360;2022-10-26T09:02:48;20.60;11.90
39401;DHT22;54391;50.000;7.360;2022-10-26T09:05:17;20.80;11.30
39401;DHT22;54391;50.000;7.360;2022-10-26T09:07:51;20.80;11.20
39401;DHT22;54391;50.000;7.360;2022-10-26T09:10:37;21.00;10.40
39401;DHT22;54391;50.000;7.360;2022-10-26T09:13:14;21.10;10.80
39401;DHT22;54391;50.000;7.360;2022-10-26T09:15:56;22.10;7.30
39401;DHT22;54391;50.000;7.360;2022-10-26T09:18:41;22.10;7.10
39401;DHT22;54391;50.000;7.360;2022-10-26T09:21:22;21.70;7.20
39401;DHT22;54391;50.000;7.360;2022-10-26T09:23:58;21.60;8.70
39401;DHT22;54391;50.000;7.360;2022-10-26T09:26:32;21.60;8.50
39401;DHT22;54391;50.000;7.360;2022-10-26T09:29:09;21.40;8.20
39401;DHT22;54391;50.000;7.360;2022-10-26T09:31:39;20.10;11.30
39401;DHT22;54391;50.000;7.360;2022-10-26T09:34:15;18.60;18.00
39401;DHT22;54391;50.000;7.360;2022-10-26T09:36:44;18.00;21.30
39401;DHT22;54391;50.000;7.360;2022-10-26T09:39:16;17.80;22.10
39401;DHT22;54391;50.000;7.360;2022-10-26T09:41:49;17.50;25.60
39401;DHT22;54391;50.000;7.360;2022-10-26T09:44:23;17.50;28.30
39401;DHT22;54391;50.000;7.360;2022-10-26T09:46:55;17.40;27.80
39401;DHT22;54391;50.000;7.360;2022-10-26T09:49:30;17.20;30.40
39401;DHT22;54391;50.000;7.360;2022-10-26T09:51:59;17.10;32.10
39401;DHT22;54391;50.000;7.360;2022-10-26T09:56:56;17.40;31.70
39401;DHT22;54391;50.000;7.360;2022-10-26T09:59:26;17.80;28.70
39401;DHT22;54391;50.000;7.360;2022-10-26T10:01:58;17.80;28.70
39401;DHT22;54391;50.000;7.360;2022-10-26T10:04:25;17.70;29.20
39401;DHT22;54391;50.000;7.360;2022-10-26T10:07:12;17.60;29.90
39401;DHT22;54391;50.000;7.360;2022-10-26T10:09:39;17.40;30.60
39401;DHT22;54391;50.000;7.360;2022-10-26T10:12:18;16.90;33.40
39401;DHT22;54391;50.000;7.360;2022-10-26T10:14:56;16.90;34.70
39401;DHT22;54391;50.000;7.360;2022-10-26T10:17:25;16.90;35.60
39401;DHT22;54391;50.000;7.360;2022-10-26T10:19:52;17.20;34.30
39401;DHT22;54391;50.000;7.360;2022-10-26T10:22:23;17.20;34.00
39401;DHT22;54391;50.000;7.360;2022-10-26T10:24:55;17.70;32.60
39401;DHT22;54391;50.000;7.360;2022-10-26T10:27:23;17.60;33.30
39401;DHT22;54391;50.000;7.360;2022-10-26T10:29:52;17.70;31.90
39401;DHT22;54391;50.000;7.360;2022-10-26T10:32:24;17.70;31.90
39401;DHT22;54391;50.000;7.360;2022-10-26T10:34:55;17.60;31.00
39401;DHT22;54391;50.000;7.360;2022-10-26T10:37:26;17.50;31.90
39401;DHT22;54391;50.000;7.360;2022-10-26T10:39:56;17.60;32.00
39401;DHT22;54391;50.000;7.360;2022-10-26T10:42:26;17.70;32.20
39401;DHT22;54391;50.000;7.360;2022-10-26T10:44:57;17.80;32.10
39401;DHT22;54391;50.000;7.360;2022-10-26T10:47:28;17.90;28.00
39401;DHT22;54391;50.000;7.360;2022-10-26T10:50:00;18.20;27.70
39401;DHT22;54391;50.000;7.360;2022-10-26T10:52:30;18.40;27.20
39401;DHT22;54391;50.000;7.360;2022-10-26T10:55:08;18.50;24.20
39401;DHT22;54391;50.000;7.360;2022-10-26T10:57:52;18.40;23.50
39401;DHT22;54391;50.000;7.360;2022-10-26T11:00:23;18.50;23.00
39401;DHT22;54391;50.000;7.360;2022-10-26T11:03:04;18.90;22.10
39401;DHT22;54391;50.000;7.360;2022-10-26T11:06:00;19.30;19.10
39401;DHT22;54391;50.000;7.360;2022-10-26T11:08:36;19.80;18.00
39401;DHT22;54391;50.000;7.360;2022-10-26T11:11:08;20.30;16.40
39401;DHT22;54391;50.000;7.360;2022-10-26T11:13:40;20.80;12.10
39401;DHT22;54391;50.000;7.360;2022-10-26T11:16:12;21.40;9.70
39401;DHT22;54391;50.000;7.360;2022-10-26T11:18:44;21.40;9.30
39401;DHT22;54391;50.000;7.360;2022-10-26T11:21:19;21.60;9.40
39401;DHT22;54391;50.000;7.360;2022-10-26T11:23:51;21.10;9.10
39401;DHT22;54391;50.000;7.360;2022-10-26T11:26:25;21.20;8.60
39401;DHT22;54391;50.000;7.360;2022-10-26T11:28:57;21.20;8.60
39401;DHT22;54391;50.000;7.360;2022-10-26T11:31:32;21.60;8.50
39401;DHT22;54391;50.000;7.360;2022-10-26T11:34:16;21.40;7.80
39401;DHT22;54391;50.000;7.360;2022-10-26T11:36:50;21.40;8.10
39401;DHT22;54391;50.000;7.360;2022-10-26T11:39:23;21.40;7.70
39401;DHT22;54391;50.000;7.360;2022-10-26T11:41:55;21.50;7.70
39401;DHT22;54391;50.000;7.360;2022-10-26T11:44:29;21.40;7.80
39401;DHT22;54391;50.000;7.360;2022-10-26T11:47:02;21.60;8.10
39401;DHT22;54391;50.000;7.360;2022-10-26T11:49:38;21.60;7.80
39401;DHT22;54391;50.000;7.360;2022-10-26T11:52:13;21.60;8.80
39401;DHT22;54391;50.000;7.360;2022-10-26T11:54:46;21.50;7.00
39401;DHT22;54391;50.000;7.360;2022-10-26T11:57:17;21.40;7.40
39401;DHT22;54391;50.000;7.360;2022-10-26T11:59:48;21.20;8.10
39401;DHT22;54391;50.000;7.360;2022-10-26T12:02:18;20.80;7.60
39401;DHT22;54391;50.000;7.360;2022-10-26T12:04:52;20.80;7.60
39401;DHT22;54391;50.000;7.360;2022-10-26T12:07:25;20.90;8.20
39401;DHT22;54391;50.000;7.360;2022-10-26T12:09:53;20.70;8.60
39401;DHT22;54391;50.000;7.360;2022-10-26T12:12:28;20.70;9.00
39401;DHT22;54391;50.000;7.360;2022-10-26T12:15:04;20.70;9.10
39401;DHT22;54391;50.000;7.360;2022-10-26T12:17:38;20.50;9.00
39401;DHT22;54391;50.000;7.360;2022-10-26T12:20:31;21.00;8.00
39401;DHT22;54391;50.000;7.360;2022-10-26T12:23:03;21.00;7.70
39401;DHT22;54391;50.000;7.360;2022-10-26T12:25:30;21.00;7.60
39401;DHT22;54391;50.000;7.360;2022-10-26T12:30:27;20.90;8.70
39401;DHT22;54391;50.000;7.360;2022-10-26T12:32:56;20.80;8.70
39401;DHT22;54391;50.000;7.360;2022-10-26T12:35:32;21.10;7.50
39401;DHT22;54391;50.000;7.360;2022-10-26T12:38:01;21.10;7.90
39401;DHT22;54391;50.000;7.360;2022-10-26T12:40:41;21.10;8.40
39401;DHT22;54391;50.000;7.360;2022-10-26T12:43:34;21.00;8.70
39401;DHT22;54391;50.000;7.360;2022-10-26T12:52:19;20.60;8.90
39401;DHT22;54391;50.000;7.360;2022-10-26T12:57:43;20.30;9.10
39401;DHT22;54391;50.000;7.360;2022-10-26T13:00:14;20.70;8.80
39401;DHT22;54391;50.000;7.360;2022-10-26T13:02:55;20.80;9.60
39401;DHT22;54391;50.000;7.360;2022-10-26T13:06:00;20.80;9.40
39401;DHT22;54391;50.000;7.360;2022-10-26T13:08:39;20.80;9.90
39401;DHT22;54391;50.000;7.360;2022-10-26T13:11:14;20.60;9.80
39401;DHT22;54391;50.000;7.360;2022-10-26T13:13:43;20.40;10.30
39401;DHT22;54391;50.000;7.360;2022-10-26T13:16:11;20.30;10.60
39401;DHT22;54391;50.000;7.360;2022-10-26T13:18:43;20.20;11.10
39401;DHT22;54391;50.000;7.360;2022-10-26T13:21:14;20.10;12.00
39401;DHT22;54391;50.000;7.360;2022-10-26T13:23:45;20.00;12.30
39401;DHT22;54391;50.000;7.360;2022-10-26T13:26:14;20.00;12.80
39401;DHT22;54391;50.000;7.360;2022-10-26T13:28:52;19.70;12.90
39401;DHT22;54391;50.000;7.360;2022-10-26T13:31:53;19.70;14.20
39401;DHT22;54391;50.000;7.360;2022-10-26T13:34:23;19.70;14.30
39401;DHT22;54391;50.000;7.360;2022-10-26T13:37:00;19.70;14.80
39401;DHT22;54391;50.000;7.360;2022-10-26T13:39:34;19.50;15.60
39401;DHT22;54391;50.000;7.360;2022-10-26T13:44:36;22.60;16.40
39401;DHT22;54391;50.000;7.360;2022-10-26T13:47:08;19.50;15.10
39401;DHT22;54391;50.000;7.360;2022-10-26T13:49:39;19.50;15.30
39401;DHT22;54391;50.000;7.360;2022-10-26T13:52:13;19.50;15.90
39401;DHT22;54391;50.000;7.360;2022-10-26T13:54:46;19.60;16.30
39401;DHT22;54391;50.000;7.360;2022-10-26T13:57:18;19.50;15.90
39401;DHT22;54391;50.000;7.360;2022-10-26T13:59:46;19.60;16.50
39401;DHT22;54391;50.000;7.360;2022-10-26T14:02:17;19.50;16.80
39401;DHT22;54391;50.000;7.360;2022-10-26T14:04:45;19.60;16.50
39401;DHT22;54391;50.000;7.360;2022-10-26T14:07:19;19.60;14.70
39401;DHT22;54391;50.000;7.360;2022-10-26T14:12:18;19.60;15.00
39401;DHT22;54391;50.000;7.360;2022-10-26T14:17:18;19.40;15.60
39401;DHT22;54391;50.000;7.360;2022-10-26T14:22:18;19.20;15.60
39401;DHT22;54391;50.000;7.360;2022-10-26T14:24:54;19.30;15.40
39401;DHT22;54391;50.000;7.360;2022-10-26T14:27:23;19.30;16.40
39401;DHT22;54391;50.000;7.360;2022-10-26T14:29:52;19.10;17.10
39401;DHT22;54391;50.000;7.360;2022-10-26T14:37:29;18.80;17.10
39401;DHT22;54391;50.000;7.360;2022-10-26T14:42:31;18.80;16.80
39401;DHT22;54391;50.000;7.360;2022-10-26T14:44:59;18.80;16.80
39401;DHT22;54391;50.000;7.360;2022-10-26T14:47:30;18.70;17.20
39401;DHT22;54391;50.000;7.360;2022-10-26T14:52:29;18.70;17.60
39401;DHT22;54391;50.000;7.360;2022-10-26T14:55:12;18.80;17.40
39401;DHT22;54391;50.000;7.360;2022-10-26T14:57:41;18.70;17.20
39401;DHT22;54391;50.000;7.360;2022-10-26T15:03:03;18.60;17.60
39401;DHT22;54391;50.000;7.360;2022-10-26T15:05:32;18.60;17.60
39401;DHT22;54391;50.000;7.360;2022-10-26T15:08:03;18.60;18.10
39401;DHT22;54391;50.000;7.360;2022-10-26T15:13:27;18.40;18.90
39401;DHT22;54391;50.000;7.360;2022-10-26T15:16:05;18.30;18.90
39401;DHT22;54391;50.000;7.360;2022-10-26T15:18:35;18.30;19.80
39401;DHT22;54391;50.000;7.360;2022-10-26T15:21:15;18.30;19.80
39401;DHT22;54391;50.000;7.360;2022-10-26T15:23:44;18.20;19.90
39401;DHT22;54391;50.000;7.360;2022-10-26T15:26:13;18.10;20.70
39401;DHT22;54391;50.000;7.360;2022-10-26T15:28:41;18.10;20.50
39401;DHT22;54391;50.000;7.360;2022-10-26T15:31:28;18.10;21.00
39401;DHT22;54391;50.000;7.360;2022-10-26T15:34:13;18.00;21.00
39401;DHT22;54391;50.000;7.360;2022-10-26T15:36:41;18.10;22.00
39401;DHT22;54391;50.000;7.360;2022-10-26T15:39:08;18.10;21.70
39401;DHT22;54391;50.000;7.360;2022-10-26T15:41:44;18.00;21.50
39401;DHT22;54391;50.000;7.360;2022-10-26T15:44:13;18.00;21.50
39401;DHT22;54391;50.000;7.360;2022-10-26T15:46:42;18.00;22.00
39401;DHT22;54391;50.000;7.360;2022-10-26T15:49:15;17.80;21.10
39401;DHT22;54391;50.000;7.360;2022-10-26T15:51:44;17.80;20.70
39401;DHT22;54391;50.000;7.360;2022-10-26T15:56:41;17.70;21.20
39401;DHT22;54391;50.000;7.360;2022-10-26T15:59:17;17.70;21.90
39401;DHT22;54391;50.000;7.360;2022-10-26T16:01:45;17.60;21.60
39401;DHT22;54391;50.000;7.360;2022-10-26T16:04:12;17.60;22.50
39401;DHT22;54391;50.000;7.360;2022-10-26T16:06:41;17.50;22.60
39401;DHT22;54391;50.000;7.360;2022-10-26T16:09:12;17.40;24.00
39401;DHT22;54391;50.000;7.360;2022-10-26T16:11:42;17.20;25.00
39401;DHT22;54391;50.000;7.360;2022-10-26T16:14:10;17.20;25.00
39401;DHT22;54391;50.000;7.360;2022-10-26T16:16:38;17.20;25.50
39401;DHT22;54391;50.000;7.360;2022-10-26T16:19:08;17.00;26.70
39401;DHT22;54391;50.000;7.360;2022-10-26T16:21:36;17.00;27.10
39401;DHT22;54391;50.000;7.360;2022-10-26T16:24:03;16.90;27.80
39401;DHT22;54391;50.000;7.360;2022-10-26T16:26:31;16.80;27.80
39401;DHT22;54391;50.000;7.360;2022-10-26T16:31:29;16.60;30.30
39401;DHT22;54391;50.000;7.360;2022-10-26T16:33:56;16.50;31.50
39401;DHT22;54391;50.000;7.360;2022-10-26T16:46:18;16.40;34.30
39401;DHT22;54391;50.000;7.360;2022-10-26T16:48:47;16.30;34.60
39401;DHT22;54391;50.000;7.360;2022-10-26T16:51:16;16.30;34.10
39401;DHT22;54391;50.000;7.360;2022-10-26T16:53:45;16.30;35.00
39401;DHT22;54391;50.000;7.360;2022-10-26T16:56:15;16.30;34.10
39401;DHT22;54391;50.000;7.360;2022-10-26T17:11:06;16.10;35.70
39401;DHT22;54391;50.000;7.360;2022-10-26T17:26:00;15.90;33.10
39401;DHT22;54391;50.000;7.360;2022-10-26T17:33:32;15.80;34.00
39401;DHT22;54391;50.000;7.360;2022-10-26T17:45:58;15.50;36.50
39401;DHT22;54391;50.000;7.360;2022-10-26T17:48:25;15.40;37.70
39401;DHT22;54391;50.000;7.360;2022-10-26T17:50:53;15.30;38.40
39401;DHT22;54391;50.000;7.360;2022-10-26T17:53:22;15.20;39.30
39401;DHT22;54391;50.000;7.360;2022-10-26T17:55:49;15.10;40.80
39401;DHT22;54391;50.000;7.360;2022-10-26T17:58:16;14.90;42.30
39401;DHT22;54391;50.000;7.360;2022-10-26T18:03:11;14.70;45.30
39401;DHT22;54391;50.000;7.360;2022-10-26T18:05:38;14.60;45.80
39401;DHT22;54391;50.000;7.360;2022-10-26T18:15:33;14.80;45.30
39401;DHT22;54391;50.000;7.360;2022-10-26T18:18:01;14.80;46.40
39401;DHT22;54391;50.000;7.360;2022-10-26T18:20:28;14.80;45.20
39401;DHT22;54391;50.000;7.360;2022-10-26T18:22:55;14.70;44.80
39401;DHT22;54391;50.000;7.360;2022-10-26T18:27:52;14.80;43.90
39401;DHT22;54391;50.000;7.360;2022-10-26T18:32:47;14.80;43.40
39401;DHT22;54391;50.000;7.360;2022-10-26T18:35:15;14.80;42.50
39401;DHT22;54391;50.000;7.360;2022-10-26T18:37:42;14.80;43.70
39401;DHT22;54391;50.000;7.360;2022-10-26T18:40:11;14.70;44.60
39401;DHT22;54391;50.000;7.360;2022-10-26T18:42:38;14.60;45.20
39401;DHT22;54391;50.000;7.360;2022-10-26T18:45:08;14.70;45.70
39401;DHT22;54391;50.000;7.360;2022-10-26T20:06:42;14.20;45.30
39401;DHT22;54391;50.000;7.360;2022-10-26T20:11:38;14.20;45.00
39401;DHT22;54391;50.000;7.360;2022-10-26T20:14:07;14.20;46.70